sensor_id;sensor_type;location;lat;lon;timestamp;temperature;humidity
3136;DHT22;1578;47.658;9.922;2022-09-20T00:01:17;6.60;72.20
3136;DHT22;1578;47.658;9.922;2022-09-20T00:03:47;6.60;72.60
3136;DHT22;1578;47.658;9.922;2022-09-20T00:06:16;6.60;72.20
3136;DHT22;1578;47.658;9.922;2022-09-20T00:08:43;6.60;72.20
3136;DHT22;1578;47.658;9.922;2022-09-20T00:11:11;6.70;70.40
3136;DHT22;1578;47.658;9.922;2022-09-20T00:13:40;6.60;70.50
3136;DHT22;1578;47.658;9.922;2022-09-20T00:16:12;6.50;69.40
3136;DHT22;1578;47.658;9.922;2022-09-20T00:18:38;6.60;69.30
3136;DHT22;1578;47.658;9.922;2022-09-20T00:21:04;6.50;68.00
3136;DHT22;1578;47.658;9.922;2022-09-20T00:23:30;6.40;68.40
3136;DHT22;1578;47.658;9.922;2022-09-20T00:26:00;6.30;68.10
3136;DHT22;1578;47.658;9.922;2022-09-20T00:28:27;6.20;69.60
3136;DHT22;1578;47.658;9.922;2022-09-20T00:30:54;6.10;69.70
3136;DHT22;1578;47.658;9.922;2022-09-20T00:33:22;6.10;70.60
3136;DHT22;1578;47.658;9.922;2022-09-20T00:35:48;6.10;69.90
3136;DHT22;1578;47.658;9.922;2022-09-20T00:38:14;6.10;69.30
3136;DHT22;1578;47.658;9.922;2022-09-20T00:40:42;6.10;70.00
3136;DHT22;1578;47.658;9.922;2022-09-20T00:43:15;6.10;70.00
3136;DHT22;1578;47.658;9.922;2022-09-20T00:45:43;6.00;69.80
3136;DHT22;1578;47.658;9.922;2022-09-20T00:48:17;5.90;70.00
3136;DHT22;1578;47.658;9.922;2022-09-20T00:50:52;5.90;71.10
3136;DHT22;1578;47.658;9.922;2022-09-20T00:53:29;5.90;70.90
3136;DHT22;1578;47.658;9.922;2022-09-20T00:56:00;5.80;71.50
3136;DHT22;1578;47.658;9.922;2022-09-20T00:58:28;5.90;71.20
3136;DHT22;1578;47.658;9.922;2022-09-20T01:00:57;6.00;72.10
3136;DHT22;1578;47.658;9.922;2022-09-20T01:03:26;5.90;68.10
3136;DHT22;1578;47.658;9.922;2022-09-20T01:05:53;5.80;69.50
3136;DHT22;1578;47.658;9.922;2022-09-20T01:08:20;5.80;70.00
3136;DHT22;1578;47.658;9.922;2022-09-20T01:10:49;5.70;69.70
3136;DHT22;1578;47.658;9.922;2022-09-20T01:13:15;5.70;70.20
3136;DHT22;1578;47.658;9.922;2022-09-20T01:15:41;5.70;70.60
3136;DHT22;1578;47.658;9.922;2022-09-20T01:18:08;5.70;70.70
3136;DHT22;1578;47.658;9.922;2022-09-20T01:20:37;5.70;70.40
3136;DHT22;1578;47.658;9.922;2022-09-20T01:28:33;5.50;72.20
3136;DHT22;1578;47.658;9.922;2022-09-20T01:31:27;5.40;72.90
3136;DHT22;1578;47.658;9.922;2022-09-20T01:34:06;5.40;74.00
3136;DHT22;1578;47.658;9.922;2022-09-20T01:39:05;5.40;73.80
3136;DHT22;1578;47.658;9.922;2022-09-20T01:42:24;5.30;73.50
3136;DHT22;1578;47.658;9.922;2022-09-20T01:44:37;5.20;74.10
3136;DHT22;1578;47.658;9.922;2022-09-20T01:47:30;5.10;75.40
3136;DHT22;1578;47.658;9.922;2022-09-20T02:12:57;4.80;75.70
3136;DHT22;1578;47.658;9.922;2022-09-20T02:23:50;4.80;77.00
3136;DHT22;1578;47.658;9.922;2022-09-20T02:29:36;4.80;76.80
3136;DHT22;1578;47.658;9.922;2022-09-20T02:35:18;4.60;78.30
3136;DHT22;1578;47.658;9.922;2022-09-20T02:41:13;4.50;79.30
3136;DHT22;1578;47.658;9.922;2022-09-20T02:44:08;4.50;79.30
3136;DHT22;1578;47.658;9.922;2022-09-20T02:55:39;4.50;79.30
3136;DHT22;1578;47.658;9.922;2022-09-20T02:57:57;4.50;78.30
3136;DHT22;1578;47.658;9.922;2022-09-20T03:00:33;4.50;78.20
3136;DHT22;1578;47.658;9.922;2022-09-20T03:06:03;4.50;79.00
3136;DHT22;1578;47.658;9.922;2022-09-20T03:14:25;4.30;80.30
3136;DHT22;1578;47.658;9.922;2022-09-20T03:20:03;4.30;80.90
3136;DHT22;1578;47.658;9.922;2022-09-20T03:28:21;4.30;81.60
3136;DHT22;1578;47.658;9.922;2022-09-20T03:36:27;4.40;80.50
3136;DHT22;1578;47.658;9.922;2022-09-20T03:44:14;4.50;79.90
3136;DHT22;1578;47.658;9.922;2022-09-20T03:46:46;4.50;77.00
3136;DHT22;1578;47.658;9.922;2022-09-20T04:00:21;4.30;76.90
3136;DHT22;1578;47.658;9.922;2022-09-20T04:11:37;4.10;80.20
3136;DHT22;1578;47.658;9.922;2022-09-20T04:14:25;4.20;80.60
3136;DHT22;1578;47.658;9.922;2022-09-20T04:19:45;4.20;78.90
3136;DHT22;1578;47.658;9.922;2022-09-20T04:22:13;4.10;77.70
3136;DHT22;1578;47.658;9.922;2022-09-20T04:25:03;4.10;78.40
3136;DHT22;1578;47.658;9.922;2022-09-20T04:27:50;4.10;78.30
3136;DHT22;1578;47.658;9.922;2022-09-20T04:30:23;4.10;78.20
3136;DHT22;1578;47.658;9.922;2022-09-20T04:33:18;4.10;77.80
3136;DHT22;1578;47.658;9.922;2022-09-20T04:35:59;4.00;77.80
3136;DHT22;1578;47.658;9.922;2022-09-20T04:38:53;4.00;78.90
3136;DHT22;1578;47.658;9.922;2022-09-20T04:44:22;3.90;78.80
3136;DHT22;1578;47.658;9.922;2022-09-20T04:50:17;3.80;80.50
3136;DHT22;1578;47.658;9.922;2022-09-20T04:53:23;3.80;81.70
3136;DHT22;1578;47.658;9.922;2022-09-20T04:55:59;4.00;80.20
3136;DHT22;1578;47.658;9.922;2022-09-20T04:58:46;3.90;78.80
3136;DHT22;1578;47.658;9.922;2022-09-20T05:07:01;3.70;80.30
3136;DHT22;1578;47.658;9.922;2022-09-20T05:18:41;3.80;81.20
3136;DHT22;1578;47.658;9.922;2022-09-20T05:21:22;3.70;81.60
3136;DHT22;1578;47.658;9.922;2022-09-20T05:29:51;3.80;84.00
3136;DHT22;1578;47.658;9.922;2022-09-20T05:38:04;4.00;81.50
3136;DHT22;1578;47.658;9.922;2022-09-20T05:55:16;4.40;86.20
3136;DHT22;1578;47.658;9.922;2022-09-20T06:01:03;4.50;86.40
3136;DHT22;1578;47.658;9.922;2022-09-20T06:14:18;4.80;84.00
3136;DHT22;1578;47.658;9.922;2022-09-20T06:19:45;5.00;84.10
3136;DHT22;1578;47.658;9.922;2022-09-20T06:25:02;5.00;83.80
3136;DHT22;1578;47.658;9.922;2022-09-20T06:27:37;5.00;83.90
3136;DHT22;1578;47.658;9.922;2022-09-20T06:30:07;5.00;83.50
3136;DHT22;1578;47.658;9.922;2022-09-20T06:35:39;5.20;84.80
3136;DHT22;1578;47.658;9.922;2022-09-20T06:38:32;5.20;85.00
3136;DHT22;1578;47.658;9.922;2022-09-20T06:41:20;5.40;84.50
3136;DHT22;1578;47.658;9.922;2022-09-20T06:43:56;5.50;84.00
3136;DHT22;1578;47.658;9.922;2022-09-20T06:46:27;5.60;82.40
3136;DHT22;1578;47.658;9.922;2022-09-20T06:48:54;5.60;82.60
3136;DHT22;1578;47.658;9.922;2022-09-20T06:51:20;5.70;83.50
3136;DHT22;1578;47.658;9.922;2022-09-20T06:53:47;5.80;84.10
3136;DHT22;1578;47.658;9.922;2022-09-20T06:56:19;5.90;84.40
3136;DHT22;1578;47.658;9.922;2022-09-20T06:58:45;6.10;83.20
3136;DHT22;1578;47.658;9.922;2022-09-20T07:01:11;6.30;82.10
3136;DHT22;1578;47.658;9.922;2022-09-20T07:03:41;6.40;79.80
3136;DHT22;1578;47.658;9.922;2022-09-20T07:06:07;6.60;78.50
3136;DHT22;1578;47.658;9.922;2022-09-20T07:08:34;6.60;81.20
3136;DHT22;1578;47.658;9.922;2022-09-20T07:11:07;6.80;82.20
3136;DHT22;1578;47.658;9.922;2022-09-20T07:13:34;7.00;81.90
3136;DHT22;1578;47.658;9.922;2022-09-20T07:16:06;7.20;80.30
3136;DHT22;1578;47.658;9.922;2022-09-20T07:18:32;7.40;78.70
3136;DHT22;1578;47.658;9.922;2022-09-20T07:21:01;7.50;73.00
3136;DHT22;1578;47.658;9.922;2022-09-20T07:23:28;7.50;74.70
3136;DHT22;1578;47.658;9.922;2022-09-20T07:25:55;7.70;76.90
3136;DHT22;1578;47.658;9.922;2022-09-20T07:28:29;8.20;79.10
3136;DHT22;1578;47.658;9.922;2022-09-20T07:30:56;8.70;72.00
3136;DHT22;1578;47.658;9.922;2022-09-20T07:33:22;9.10;66.40
3136;DHT22;1578;47.658;9.922;2022-09-20T07:35:50;9.40;61.20
3136;DHT22;1578;47.658;9.922;2022-09-20T07:38:17;9.60;61.60
3136;DHT22;1578;47.658;9.922;2022-09-20T07:40:43;9.80;60.40
3136;DHT22;1578;47.658;9.922;2022-09-20T07:43:11;10.10;58.50
3136;DHT22;1578;47.658;9.922;2022-09-20T07:45:37;10.30;57.30
3136;DHT22;1578;47.658;9.922;2022-09-20T07:48:06;10.60;54.50
3136;DHT22;1578;47.658;9.922;2022-09-20T07:50:33;10.80;52.80
3136;DHT22;1578;47.658;9.922;2022-09-20T07:52:59;11.00;55.80
3136;DHT22;1578;47.658;9.922;2022-09-20T07:55:25;11.30;54.00
3136;DHT22;1578;47.658;9.922;2022-09-20T07:57:50;11.60;50.70
3136;DHT22;1578;47.658;9.922;2022-09-20T08:00:17;11.70;49.00
3136;DHT22;1578;47.658;9.922;2022-09-20T08:02:42;11.90;49.60
3136;DHT22;1578;47.658;9.922;2022-09-20T08:05:11;12.30;48.60
3136;DHT22;1578;47.658;9.922;2022-09-20T08:07:36;12.60;48.90
3136;DHT22;1578;47.658;9.922;2022-09-20T08:10:04;12.90;44.50
3136;DHT22;1578;47.658;9.922;2022-09-20T08:12:30;12.70;36.20
3136;DHT22;1578;47.658;9.922;2022-09-20T08:14:57;12.50;41.20
3136;DHT22;1578;47.658;9.922;2022-09-20T08:17:23;12.50;44.40
3136;DHT22;1578;47.658;9.922;2022-09-20T08:19:49;12.30;41.00
3136;DHT22;1578;47.658;9.922;2022-09-20T08:22:17;12.50;50.10
3136;DHT22;1578;47.658;9.922;2022-09-20T08:24:42;12.70;42.20
3136;DHT22;1578;47.658;9.922;2022-09-20T08:27:08;12.90;38.40
3136;DHT22;1578;47.658;9.922;2022-09-20T08:29:34;13.10;46.40
3136;DHT22;1578;47.658;9.922;2022-09-20T08:31:59;13.30;41.00
3136;DHT22;1578;47.658;9.922;2022-09-20T08:34:26;13.30;37.30
3136;DHT22;1578;47.658;9.922;2022-09-20T08:36:52;13.10;36.80
3136;DHT22;1578;47.658;9.922;2022-09-20T08:39:21;13.00;35.50
3136;DHT22;1578;47.658;9.922;2022-09-20T08:41:54;12.30;38.10
3136;DHT22;1578;47.658;9.922;2022-09-20T08:44:31;12.30;39.10
3136;DHT22;1578;47.658;9.922;2022-09-20T08:47:15;12.30;39.10
3136;DHT22;1578;47.658;9.922;2022-09-20T08:49:42;12.30;40.40
3136;DHT22;1578;47.658;9.922;2022-09-20T08:52:36;12.40;36.80
3136;DHT22;1578;47.658;9.922;2022-09-20T08:55:03;12.50;35.30
3136;DHT22;1578;47.658;9.922;2022-09-20T08:57:31;12.80;38.20
3136;DHT22;1578;47.658;9.922;2022-09-20T08:59:59;12.80;33.40
3136;DHT22;1578;47.658;9.922;2022-09-20T09:02:30;13.00;39.30
3136;DHT22;1578;47.658;9.922;2022-09-20T09:04:56;13.50;37.10
3136;DHT22;1578;47.658;9.922;2022-09-20T09:07:23;13.30;36.40
3136;DHT22;1578;47.658;9.922;2022-09-20T09:09:53;13.50;36.20
3136;DHT22;1578;47.658;9.922;2022-09-20T09:12:25;13.70;35.60
3136;DHT22;1578;47.658;9.922;2022-09-20T09:14:56;13.70;31.80
3136;DHT22;1578;47.658;9.922;2022-09-20T09:17:27;13.30;37.30
3136;DHT22;1578;47.658;9.922;2022-09-20T09:19:56;13.60;36.10
3136;DHT22;1578;47.658;9.922;2022-09-20T09:22:30;13.40;38.50
3136;DHT22;1578;47.658;9.922;2022-09-20T09:28:03;13.10;39.20
3136;DHT22;1578;47.658;9.922;2022-09-20T09:30:42;13.10;38.60
3136;DHT22;1578;47.658;9.922;2022-09-20T09:33:29;13.30;36.40
3136;DHT22;1578;47.658;9.922;2022-09-20T09:36:04;13.20;42.30
3136;DHT22;1578;47.658;9.922;2022-09-20T09:38:35;13.50;40.40
3136;DHT22;1578;47.658;9.922;2022-09-20T09:41:04;13.80;37.30
3136;DHT22;1578;47.658;9.922;2022-09-20T09:43:36;13.50;37.80
3136;DHT22;1578;47.658;9.922;2022-09-20T09:46:22;13.00;39.70
3136;DHT22;1578;47.658;9.922;2022-09-20T09:49:07;12.80;38.10
3136;DHT22;1578;47.658;9.922;2022-09-20T09:51:34;12.60;39.40
3136;DHT22;1578;47.658;9.922;2022-09-20T09:54:01;12.20;42.00
3136;DHT22;1578;47.658;9.922;2022-09-20T09:56:53;11.90;45.10
3136;DHT22;1578;47.658;9.922;2022-09-20T09:59:39;12.00;43.70
3136;DHT22;1578;47.658;9.922;2022-09-20T10:05:23;12.00;45.80
3136;DHT22;1578;47.658;9.922;2022-09-20T10:07:54;12.10;41.50
3136;DHT22;1578;47.658;9.922;2022-09-20T10:30:21;14.30;32.30
3136;DHT22;1578;47.658;9.922;2022-09-20T10:33:01;14.20;27.20
3136;DHT22;1578;47.658;9.922;2022-09-20T10:35:54;13.90;29.30
3136;DHT22;1578;47.658;9.922;2022-09-20T10:38:53;13.80;28.70
3136;DHT22;1578;47.658;9.922;2022-09-20T10:46:47;13.40;33.40
3136;DHT22;1578;47.658;9.922;2022-09-20T10:57:25;13.50;29.70
3136;DHT22;1578;47.658;9.922;2022-09-20T11:00:07;13.60;28.50
3136;DHT22;1578;47.658;9.922;2022-09-20T11:03:16;13.60;31.80
3136;DHT22;1578;47.658;9.922;2022-09-20T11:05:56;13.60;26.60
3136;DHT22;1578;47.658;9.922;2022-09-20T11:08:35;13.20;28.20
3136;DHT22;1578;47.658;9.922;2022-09-20T11:14:14;13.70;29.10
3136;DHT22;1578;47.658;9.922;2022-09-20T11:16:56;14.30;25.70
3136;DHT22;1578;47.658;9.922;2022-09-20T11:19:51;14.30;27.10
3136;DHT22;1578;47.658;9.922;2022-09-20T11:22:26;13.80;26.40
3136;DHT22;1578;47.658;9.922;2022-09-20T11:25:05;13.50;25.10
3136;DHT22;1578;47.658;9.922;2022-09-20T11:27:50;13.30;28.00
3136;DHT22;1578;47.658;9.922;2022-09-20T11:30:21;13.40;28.20
3136;DHT22;1578;47.658;9.922;2022-09-20T11:32:59;13.40;28.00
3136;DHT22;1578;47.658;9.922;2022-09-20T11:35:49;13.30;29.80
3136;DHT22;1578;47.658;9.922;2022-09-20T11:43:30;13.20;25.10
3136;DHT22;1578;47.658;9.922;2022-09-20T11:46:00;13.40;27.50
3136;DHT22;1578;47.658;9.922;2022-09-20T11:48:49;13.60;25.40
3136;DHT22;1578;47.658;9.922;2022-09-20T11:56:53;13.50;24.20
3136;DHT22;1578;47.658;9.922;2022-09-20T11:59:36;13.80;28.70
3136;DHT22;1578;47.658;9.922;2022-09-20T12:02:26;13.90;23.90
3136;DHT22;1578;47.658;9.922;2022-09-20T12:04:56;13.60;22.60
3136;DHT22;1578;47.658;9.922;2022-09-20T12:07:23;13.60;23.20
3136;DHT22;1578;47.658;9.922;2022-09-20T12:09:59;13.60;23.20
3136;DHT22;1578;47.658;9.922;2022-09-20T12:12:40;13.40;21.40
3136;DHT22;1578;47.658;9.922;2022-09-20T12:15:22;13.30;21.40
3136;DHT22;1578;47.658;9.922;2022-09-20T12:28:51;15.10;17.30
3136;DHT22;1578;47.658;9.922;2022-09-20T12:56:25;14.10;18.60
3136;DHT22;1578;47.658;9.922;2022-09-20T12:58:50;14.10;20.10
3136;DHT22;1578;47.658;9.922;2022-09-20T13:03:47;14.60;19.80
3136;DHT22;1578;47.658;9.922;2022-09-20T13:08:46;15.00;11.40
3136;DHT22;1578;47.658;9.922;2022-09-20T13:14:04;15.00;13.20
3136;DHT22;1578;47.658;9.922;2022-09-20T13:19:17;15.00;16.40
3136;DHT22;1578;47.658;9.922;2022-09-20T13:24:49;14.80;15.00
3136;DHT22;1578;47.658;9.922;2022-09-20T13:27:26;15.10;11.10
3136;DHT22;1578;47.658;9.922;2022-09-20T13:29:54;15.30;15.10
3136;DHT22;1578;47.658;9.922;2022-09-20T13:32:30;15.50;15.20
3136;DHT22;1578;47.658;9.922;2022-09-20T13:35:15;15.40;11.70
3136;DHT22;1578;47.658;9.922;2022-09-20T13:40:23;15.20;13.60
3136;DHT22;1578;47.658;9.922;2022-09-20T13:42:51;14.80;14.00
3136;DHT22;1578;47.658;9.922;2022-09-20T13:45:19;14.60;13.30
3136;DHT22;1578;47.658;9.922;2022-09-20T13:47:52;14.40;16.90
3136;DHT22;1578;47.658;9.922;2022-09-20T13:52:53;14.10;19.00
3136;DHT22;1578;47.658;9.922;2022-09-20T13:55:28;13.90;18.80
3136;DHT22;1578;47.658;9.922;2022-09-20T13:57:55;14.00;17.90
3136;DHT22;1578;47.658;9.922;2022-09-20T14:00:23;14.20;20.00
3136;DHT22;1578;47.658;9.922;2022-09-20T14:02:51;14.60;19.30
3136;DHT22;1578;47.658;9.922;2022-09-20T14:05:20;14.80;17.50
3136;DHT22;1578;47.658;9.922;2022-09-20T14:07:48;14.60;14.70
3136;DHT22;1578;47.658;9.922;2022-09-20T14:10:35;14.20;14.50
3136;DHT22;1578;47.658;9.922;2022-09-20T14:13:04;14.00;15.60
3136;DHT22;1578;47.658;9.922;2022-09-20T14:15:51;13.90;16.50
3136;DHT22;1578;47.658;9.922;2022-09-20T14:18:17;13.60;18.60
3136;DHT22;1578;47.658;9.922;2022-09-20T14:20:45;13.50;17.30
3136;DHT22;1578;47.658;9.922;2022-09-20T14:23:23;13.40;17.30
3136;DHT22;1578;47.658;9.922;2022-09-20T14:26:22;13.30;17.50
3136;DHT22;1578;47.658;9.922;2022-09-20T14:28:48;13.30;19.00
3136;DHT22;1578;47.658;9.922;2022-09-20T14:31:24;13.50;20.40
3136;DHT22;1578;47.658;9.922;2022-09-20T14:33:53;13.70;20.50
3136;DHT22;1578;47.658;9.922;2022-09-20T14:36:21;13.70;14.60
3136;DHT22;1578;47.658;9.922;2022-09-20T14:38:50;13.60;20.40
3136;DHT22;1578;47.658;9.922;2022-09-20T14:41:35;13.60;13.90
3136;DHT22;1578;47.658;9.922;2022-09-20T14:44:03;13.80;14.70
3136;DHT22;1578;47.658;9.922;2022-09-20T14:46:35;13.90;13.90
3136;DHT22;1578;47.658;9.922;2022-09-20T14:49:31;13.60;14.10
3136;DHT22;1578;47.658;9.922;2022-09-20T14:55:22;13.00;13.20
3136;DHT22;1578;47.658;9.922;2022-09-20T14:57:56;13.10;14.30
3136;DHT22;1578;47.658;9.922;2022-09-20T15:00:23;13.10;15.60
3136;DHT22;1578;47.658;9.922;2022-09-20T15:02:49;13.20;14.80
3136;DHT22;1578;47.658;9.922;2022-09-20T15:05:19;13.40;15.30
3136;DHT22;1578;47.658;9.922;2022-09-20T15:07:46;13.40;16.20
3136;DHT22;1578;47.658;9.922;2022-09-20T15:10:12;13.50;12.80
3136;DHT22;1578;47.658;9.922;2022-09-20T15:12:39;13.60;13.80
3136;DHT22;1578;47.658;9.922;2022-09-20T15:15:05;13.50;12.30
3136;DHT22;1578;47.658;9.922;2022-09-20T15:17:30;13.60;14.80
3136;DHT22;1578;47.658;9.922;2022-09-20T15:19:56;13.50;10.40
3136;DHT22;1578;47.658;9.922;2022-09-20T15:22:21;13.50;12.70
3136;DHT22;1578;47.658;9.922;2022-09-20T15:24:47;13.60;12.20
3136;DHT22;1578;47.658;9.922;2022-09-20T15:27:13;13.60;13.00
3136;DHT22;1578;47.658;9.922;2022-09-20T15:29:39;13.60;14.50
3136;DHT22;1578;47.658;9.922;2022-09-20T15:32:05;13.60;14.30
3136;DHT22;1578;47.658;9.922;2022-09-20T15:34:31;13.60;16.20
3136;DHT22;1578;47.658;9.922;2022-09-20T15:36:57;13.60;14.40
3136;DHT22;1578;47.658;9.922;2022-09-20T15:39:22;13.50;15.10
3136;DHT22;1578;47.658;9.922;2022-09-20T15:41:51;13.40;14.50
3136;DHT22;1578;47.658;9.922;2022-09-20T15:44:16;13.20;14.30
3136;DHT22;1578;47.658;9.922;2022-09-20T15:46:42;13.00;18.20
3136;DHT22;1578;47.658;9.922;2022-09-20T15:49:10;13.00;17.40
3136;DHT22;1578;47.658;9.922;2022-09-20T15:51:36;13.10;20.00
3136;DHT22;1578;47.658;9.922;2022-09-20T15:54:04;13.20;14.90
3136;DHT22;1578;47.658;9.922;2022-09-20T15:56:36;13.20;16.10
3136;DHT22;1578;47.658;9.922;2022-09-20T15:59:06;13.20;18.40
3136;DHT22;1578;47.658;9.922;2022-09-20T16:01:34;13.30;21.10
3136;DHT22;1578;47.658;9.922;2022-09-20T16:04:08;13.40;18.50
3136;DHT22;1578;47.658;9.922;2022-09-20T16:06:35;13.50;14.50
3136;DHT22;1578;47.658;9.922;2022-09-20T16:09:02;13.60;22.20
3136;DHT22;1578;47.658;9.922;2022-09-20T16:11:28;13.60;20.20
3136;DHT22;1578;47.658;9.922;2022-09-20T16:13:58;13.60;18.60
3136;DHT22;1578;47.658;9.922;2022-09-20T16:16:25;13.60;18.60
3136;DHT22;1578;47.658;9.922;2022-09-20T16:18:51;13.60;17.00
3136;DHT22;1578;47.658;9.922;2022-09-20T16:21:37;13.60;17.40
3136;DHT22;1578;47.658;9.922;2022-09-20T16:24:04;13.60;18.60
3136;DHT22;1578;47.658;9.922;2022-09-20T16:26:31;13.50;20.80
3136;DHT22;1578;47.658;9.922;2022-09-20T16:28:59;13.40;20.90
3136;DHT22;1578;47.658;9.922;2022-09-20T16:36:51;13.40;22.50
3136;DHT22;1578;47.658;9.922;2022-09-20T16:39:21;13.50;21.50
3136;DHT22;1578;47.658;9.922;2022-09-20T16:41:58;13.40;21.80
3136;DHT22;1578;47.658;9.922;2022-09-20T16:44:27;13.40;24.50
3136;DHT22;1578;47.658;9.922;2022-09-20T16:46:53;13.20;26.30
3136;DHT22;1578;47.658;9.922;2022-09-20T16:49:19;13.00;27.40
3136;DHT22;1578;47.658;9.922;2022-09-20T16:51:44;13.00;27.80
3136;DHT22;1578;47.658;9.922;2022-09-20T16:54:16;12.90;28.80
3136;DHT22;1578;47.658;9.922;2022-09-20T16:56:47;12.60;29.80
3136;DHT22;1578;47.658;9.922;2022-09-20T16:59:16;12.40;32.00
3136;DHT22;1578;47.658;9.922;2022-09-20T17:01:43;12.30;30.60
3136;DHT22;1578;47.658;9.922;2022-09-20T17:04:09;12.30;30.50
3136;DHT22;1578;47.658;9.922;2022-09-20T17:06:37;12.30;30.90
3136;DHT22;1578;47.658;9.922;2022-09-20T17:09:04;12.40;32.20
3136;DHT22;1578;47.658;9.922;2022-09-20T17:11:32;12.30;32.30
3136;DHT22;1578;47.658;9.922;2022-09-20T17:13:59;12.20;32.20
3136;DHT22;1578;47.658;9.922;2022-09-20T17:16:36;12.10;32.20
3136;DHT22;1578;47.658;9.922;2022-09-20T17:19:12;12.00;33.30
3136;DHT22;1578;47.658;9.922;2022-09-20T17:21:41;11.90;35.20
3136;DHT22;1578;47.658;9.922;2022-09-20T17:24:08;11.80;36.50
3136;DHT22;1578;47.658;9.922;2022-09-20T17:26:37;11.70;36.00
3136;DHT22;1578;47.658;9.922;2022-09-20T17:29:07;11.70;36.10
3136;DHT22;1578;47.658;9.922;2022-09-20T17:31:36;11.60;37.30
3136;DHT22;1578;47.658;9.922;2022-09-20T17:34:07;11.60;37.50
3136;DHT22;1578;47.658;9.922;2022-09-20T17:36:40;11.60;37.10
3136;DHT22;1578;47.658;9.922;2022-09-20T17:39:07;11.60;38.50
3136;DHT22;1578;47.658;9.922;2022-09-20T17:41:37;11.50;39.30
3136;DHT22;1578;47.658;9.922;2022-09-20T17:44:04;11.50;38.80
3136;DHT22;1578;47.658;9.922;2022-09-20T17:46:35;11.40;38.30
3136;DHT22;1578;47.658;9.922;2022-09-20T17:49:09;11.40;37.60
3136;DHT22;1578;47.658;9.922;2022-09-20T17:54:06;11.30;41.00
3136;DHT22;1578;47.658;9.922;2022-09-20T17:56:33;11.20;41.70
3136;DHT22;1578;47.658;9.922;2022-09-20T17:59:02;11.20;42.90
3136;DHT22;1578;47.658;9.922;2022-09-20T18:01:29;11.10;43.50
3136;DHT22;1578;47.658;9.922;2022-09-20T18:03:57;11.00;44.70
3136;DHT22;1578;47.658;9.922;2022-09-20T18:06:27;10.90;45.20
3136;DHT22;1578;47.658;9.922;2022-09-20T18:08:58;10.90;45.70
3136;DHT22;1578;47.658;9.922;2022-09-20T18:11:31;10.80;46.80
3136;DHT22;1578;47.658;9.922;2022-09-20T18:13:58;10.80;46.70
3136;DHT22;1578;47.658;9.922;2022-09-20T18:16:24;10.70;47.70
3136;DHT22;1578;47.658;9.922;2022-09-20T18:18:50;10.60;49.60
3136;DHT22;1578;47.658;9.922;2022-09-20T18:21:18;10.60;47.90
3136;DHT22;1578;47.658;9.922;2022-09-20T18:23:45;10.60;48.50
3136;DHT22;1578;47.658;9.922;2022-09-20T18:26:13;10.50;47.70
3136;DHT22;1578;47.658;9.922;2022-09-20T18:28:59;10.50;48.30
3136;DHT22;1578;47.658;9.922;2022-09-20T18:34:01;10.30;47.00
3136;DHT22;1578;47.658;9.922;2022-09-20T18:36:29;10.30;47.80
3136;DHT22;1578;47.658;9.922;2022-09-20T18:38:56;10.20;49.00
3136;DHT22;1578;47.658;9.922;2022-09-20T18:41:27;10.20;47.80
3136;DHT22;1578;47.658;9.922;2022-09-20T18:43:55;10.00;48.40
3136;DHT22;1578;47.658;9.922;2022-09-20T18:46:21;9.90;50.00
3136;DHT22;1578;47.658;9.922;2022-09-20T18:48:54;9.90;50.60
3136;DHT22;1578;47.658;9.922;2022-09-20T18:51:21;9.80;51.30
3136;DHT22;1578;47.658;9.922;2022-09-20T18:53:49;9.70;51.00
3136;DHT22;1578;47.658;9.922;2022-09-20T18:58:46;9.60;51.30
3136;DHT22;1578;47.658;9.922;2022-09-20T19:04:05;9.50;52.30
3136;DHT22;1578;47.658;9.922;2022-09-20T19:06:42;9.50;51.80
3136;DHT22;1578;47.658;9.922;2022-09-20T19:09:32;9.40;52.70
3136;DHT22;1578;47.658;9.922;2022-09-20T19:12:06;9.30;52.80
3136;DHT22;1578;47.658;9.922;2022-09-20T19:15:02;9.30;53.50
3136;DHT22;1578;47.658;9.922;2022-09-20T19:17:44;9.20;53.90
3136;DHT22;1578;47.658;9.922;2022-09-20T19:20:34;9.10;54.70
3136;DHT22;1578;47.658;9.922;2022-09-20T19:26:18;9.10;56.00
3136;DHT22;1578;47.658;9.922;2022-09-20T19:28:42;9.10;56.00
3136;DHT22;1578;47.658;9.922;2022-09-20T19:31:25;9.10;56.00
3136;DHT22;1578;47.658;9.922;2022-09-20T19:33:52;9.00;56.50
3136;DHT22;1578;47.658;9.922;2022-09-20T19:36:23;9.10;57.40
3136;DHT22;1578;47.658;9.922;2022-09-20T19:39:02;9.10;57.00
3136;DHT22;1578;47.658;9.922;2022-09-20T19:41:47;9.10;58.00
3136;DHT22;1578;47.658;9.922;2022-09-20T19:50:06;9.10;60.60
3136;DHT22;1578;47.658;9.922;2022-09-20T19:52:34;9.00;59.70
3136;DHT22;1578;47.658;9.922;2022-09-20T19:55:00;8.90;59.60
3136;DHT22;1578;47.658;9.922;2022-09-20T19:57:41;8.90;59.60
3136;DHT22;1578;47.658;9.922;2022-09-20T20:00:12;8.90;60.40
3136;DHT22;1578;47.658;9.922;2022-09-20T20:02:41;9.00;60.50
3136;DHT22;1578;47.658;9.922;2022-09-20T20:05:10;9.10;61.10
3136;DHT22;1578;47.658;9.922;2022-09-20T20:15:38;9.00;61.30
3136;DHT22;1578;47.658;9.922;2022-09-20T20:18:38;9.10;60.50
3136;DHT22;1578;47.658;9.922;2022-09-20T20:21:20;9.20;60.60
3136;DHT22;1578;47.658;9.922;2022-09-20T20:24:20;9.20;59.50
3136;DHT22;1578;47.658;9.922;2022-09-20T20:26:51;9.10;61.60
3136;DHT22;1578;47.658;9.922;2022-09-20T20:29:18;9.20;64.30
3136;DHT22;1578;47.658;9.922;2022-09-20T20:31:43;9.10;62.50
3136;DHT22;1578;47.658;9.922;2022-09-20T20:34:09;9.20;64.70
3136;DHT22;1578;47.658;9.922;2022-09-20T20:36:36;9.20;63.60
3136;DHT22;1578;47.658;9.922;2022-09-20T20:39:03;9.20;64.70
3136;DHT22;1578;47.658;9.922;2022-09-20T20:41:28;9.10;62.60
3136;DHT22;1578;47.658;9.922;2022-09-20T20:43:56;9.00;62.70
3136;DHT22;1578;47.658;9.922;2022-09-20T20:46:22;9.00;62.80
3136;DHT22;1578;47.658;9.922;2022-09-20T20:48:48;8.90;63.60
3136;DHT22;1578;47.658;9.922;2022-09-20T20:51:16;8.90;64.30
3136;DHT22;1578;47.658;9.922;2022-09-20T20:53:44;9.00;62.80
3136;DHT22;1578;47.658;9.922;2022-09-20T20:56:13;9.10;63.80
3136;DHT22;1578;47.658;9.922;2022-09-20T20:58:41;9.10;63.20
3136;DHT22;1578;47.658;9.922;2022-09-20T21:01:18;9.20;62.60
3136;DHT22;1578;47.658;9.922;2022-09-20T21:03:48;9.20;61.80
3136;DHT22;1578;47.658;9.922;2022-09-20T21:06:14;9.20;62.10
3136;DHT22;1578;47.658;9.922;2022-09-20T21:08:43;9.10;61.80
3136;DHT22;1578;47.658;9.922;2022-09-20T21:11:12;9.10;60.50
3136;DHT22;1578;47.658;9.922;2022-09-20T21:13:39;9.10;61.80
3136;DHT22;1578;47.658;9.922;2022-09-20T21:18:31;9.10;61.50
3136;DHT22;1578;47.658;9.922;2022-09-20T21:20:57;9.10;62.30
3136;DHT22;1578;47.658;9.922;2022-09-20T21:23:23;9.00;62.20
3136;DHT22;1578;47.658;9.922;2022-09-20T21:25:59;9.00;62.40
3136;DHT22;1578;47.658;9.922;2022-09-20T21:28:25;9.00;62.20
3136;DHT22;1578;47.658;9.922;2022-09-20T21:30:55;9.00;61.30
3136;DHT22;1578;47.658;9.922;2022-09-20T21:33:20;9.20;63.30
3136;DHT22;1578;47.658;9.922;2022-09-20T21:35:47;9.30;62.90
3136;DHT22;1578;47.658;9.922;2022-09-20T21:38:13;9.10;61.60
3136;DHT22;1578;47.658;9.922;2022-09-20T21:40:38;9.00;63.00
3136;DHT22;1578;47.658;9.922;2022-09-20T21:43:06;8.90;63.10
3136;DHT22;1578;47.658;9.922;2022-09-20T21:45:32;8.90;63.20
3136;DHT22;1578;47.658;9.922;2022-09-20T21:47:59;8.90;62.50
3136;DHT22;1578;47.658;9.922;2022-09-20T21:50:27;8.90;63.10
3136;DHT22;1578;47.658;9.922;2022-09-20T21:52:52;8.80;65.00
3136;DHT22;1578;47.658;9.922;2022-09-20T21:55:18;8.90;63.60
3136;DHT22;1578;47.658;9.922;2022-09-20T21:57:44;8.90;63.70
3136;DHT22;1578;47.658;9.922;2022-09-20T22:00:10;8.80;62.70
3136;DHT22;1578;47.658;9.922;2022-09-20T22:02:36;8.90;62.80
3136;DHT22;1578;47.658;9.922;2022-09-20T22:05:01;8.90;62.30